createdAt,value
2022-11-17T00:00:56.000Z,21.3
2022-11-17T00:02:06.883Z,21.3
2022-11-17T00:03:17.000Z,21.3
2022-11-17T00:04:27.125Z,21.3
2022-11-17T00:05:37.000Z,21.3
2022-11-17T00:06:47.000Z,21.3
2022-11-17T00:07:57.481Z,21.3
2022-11-17T00:09:07.000Z,21.3
2022-11-17T00:10:17.709Z,21.3
2022-11-17T00:11:27.000Z,21.2
2022-11-17T00:12:36.963Z,21.2
2022-11-17T00:13:47.066Z,21.2
2022-11-17T00:14:57.185Z,21.2
2022-11-17T00:16:07.000Z,21.2
2022-11-17T00:17:17.000Z,21.2
2022-11-17T00:18:27.000Z,21.2
2022-11-17T00:19:37.657Z,21.2
2022-11-17T00:20:47.000Z,21.2
2022-11-17T00:21:57.000Z,21.2
2022-11-17T00:23:08.000Z,21.2
2022-11-17T00:24:18.135Z,21.2
2022-11-17T00:25:28.000Z,21.2
2022-11-17T00:26:38.000Z,21.2
2022-11-17T00:27:47.488Z,21.2
2022-11-17T00:28:57.602Z,21.2
2022-11-17T00:30:07.000Z,21.2
2022-11-17T00:31:17.000Z,21.2
2022-11-17T00:32:27.000Z,21.2
2022-11-17T00:33:38.080Z,21.2
2022-11-17T00:34:48.000Z,21.2
2022-11-17T00:35:58.309Z,21.2
2022-11-17T00:37:08.000Z,21.2
2022-11-17T00:38:18.000Z,21.2
2022-11-17T00:39:28.653Z,21.2
2022-11-17T00:40:38.000Z,21.2
2022-11-17T00:41:48.884Z,21.2
2022-11-17T00:42:58.000Z,21.2
2022-11-17T00:44:08.000Z,21.2
2022-11-17T00:45:18.000Z,21.2
2022-11-17T00:46:28.000Z,21.2
2022-11-17T00:47:38.000Z,21.2
2022-11-17T00:48:48.615Z,21.2
2022-11-17T00:49:58.000Z,21.2
2022-11-17T00:51:08.842Z,21.1
2022-11-17T00:52:18.959Z,21.2
2022-11-17T00:53:29.080Z,21.2
2022-11-17T00:54:39.000Z,21.1
2022-11-17T00:55:49.000Z,21.1
2022-11-17T00:56:59.424Z,21.1
2022-11-17T00:58:08.000Z,21.1
2022-11-17T00:59:18.000Z,21.1
2022-11-17T01:00:28.000Z,21.1
2022-11-17T01:01:38.000Z,21.1
2022-11-17T01:02:49.023Z,21.1
2022-11-17T01:03:59.000Z,21.1
2022-11-17T01:05:09.000Z,21.1
2022-11-17T01:06:19.384Z,21.1
2022-11-17T01:07:29.000Z,21.1
2022-11-17T01:08:39.000Z,21.1
2022-11-17T01:09:49.000Z,21.1
2022-11-17T01:10:59.000Z,21.1
2022-11-17T01:12:09.000Z,21.1
2022-11-17T01:13:19.101Z,21.1
2022-11-17T01:14:29.205Z,21.1
2022-11-17T01:15:38.000Z,21.1
2022-11-17T01:16:47.000Z,21.1
2022-11-17T01:17:57.608Z,21.1
2022-11-17T01:19:06.000Z,21.1
2022-11-17T01:20:15.877Z,21.1
2022-11-17T01:21:26.000Z,21.1
2022-11-17T01:22:36.117Z,21.1
2022-11-17T01:23:46.000Z,21.1
2022-11-17T01:24:56.344Z,21.1
2022-11-17T01:26:06.000Z,21.1
2022-11-17T01:27:16.000Z,21.1
2022-11-17T01:28:26.694Z,21.1
2022-11-17T01:29:36.000Z,21.1
2022-11-17T01:30:46.000Z,21.1
2022-11-17T01:31:57.042Z,21.1
2022-11-17T01:33:07.173Z,21.1
2022-11-17T01:34:17.286Z,21.1
2022-11-17T01:35:26.412Z,21.1
2022-11-17T01:36:36.000Z,21.1
2022-11-17T01:37:46.643Z,21.1
2022-11-17T01:38:56.765Z,21.1
2022-11-17T01:40:06.000Z,21.1
2022-11-17T01:41:17.001Z,21.1
2022-11-17T01:42:27.000Z,21.1
2022-11-17T01:43:37.000Z,21.1
2022-11-17T01:44:47.000Z,21.1
2022-11-17T01:45:57.466Z,21.1
2022-11-17T01:47:07.577Z,21.1
2022-11-17T01:48:17.707Z,21.1
2022-11-17T01:49:26.000Z,21.1
2022-11-17T01:50:35.000Z,21
2022-11-17T01:51:46.090Z,21.1
2022-11-17T01:52:55.000Z,21.1
2022-11-17T01:54:04.366Z,21
2022-11-17T01:55:14.000Z,21
2022-11-17T01:56:24.000Z,21
2022-11-17T01:57:34.730Z,21
2022-11-17T01:58:44.000Z,21.1
2022-11-17T01:59:54.964Z,21
2022-11-17T02:01:05.081Z,21
2022-11-17T02:02:15.212Z,21
2022-11-17T02:03:25.314Z,21
2022-11-17T02:04:35.432Z,21
2022-11-17T02:05:45.000Z,21
2022-11-17T02:06:55.670Z,21
2022-11-17T02:08:05.000Z,21
2022-11-17T02:09:14.000Z,21
2022-11-17T02:10:25.039Z,21
2022-11-17T02:11:35.000Z,21
2022-11-17T02:12:45.000Z,21
2022-11-17T02:13:55.000Z,21
2022-11-17T02:15:05.000Z,21
2022-11-17T02:16:15.000Z,21
2022-11-17T02:17:25.000Z,21
2022-11-17T02:18:34.000Z,21
2022-11-17T02:19:45.000Z,21
2022-11-17T02:20:54.000Z,21
2022-11-17T02:22:04.000Z,21
2022-11-17T02:23:14.000Z,21
2022-11-17T02:24:24.486Z,21
2022-11-17T02:25:33.000Z,21
2022-11-17T02:26:42.760Z,21
2022-11-17T02:27:52.875Z,21
2022-11-17T02:29:02.000Z,21
2022-11-17T02:30:13.107Z,21
2022-11-17T02:31:23.000Z,21
2022-11-17T02:32:33.000Z,21
2022-11-17T02:33:43.464Z,21
2022-11-17T02:34:53.575Z,21
2022-11-17T02:36:03.000Z,21
2022-11-17T02:37:13.815Z,21
2022-11-17T02:38:23.000Z,21
2022-11-17T02:40:44.000Z,21
2022-11-17T02:41:53.295Z,21
2022-11-17T02:43:03.413Z,21
2022-11-17T02:44:13.528Z,21
2022-11-17T02:45:23.000Z,21
2022-11-17T02:46:33.000Z,21
2022-11-17T02:47:43.875Z,21
2022-11-17T02:48:53.991Z,21
2022-11-17T02:50:04.000Z,21
2022-11-17T02:51:14.000Z,21
2022-11-17T02:52:24.000Z,20.9
2022-11-17T02:54:44.000Z,21
2022-11-17T02:55:54.000Z,21
2022-11-17T02:57:03.000Z,20.9
2022-11-17T02:58:13.937Z,20.9
2022-11-17T02:59:24.000Z,20.9
2022-11-17T03:00:34.000Z,20.9
2022-11-17T03:01:44.292Z,21
2022-11-17T03:02:54.415Z,20.9
2022-11-17T03:05:14.643Z,20.9
2022-11-17T03:06:24.000Z,20.9
2022-11-17T03:07:34.000Z,20.9
2022-11-17T03:08:44.990Z,20.9
2022-11-17T03:09:55.000Z,20.9
2022-11-17T03:11:05.000Z,20.9
2022-11-17T03:12:14.000Z,20.9
2022-11-17T03:13:24.000Z,20.9
2022-11-17T03:14:34.593Z,20.9
2022-11-17T03:16:54.842Z,20.9
2022-11-17T03:18:03.000Z,20.9
2022-11-17T03:19:13.103Z,20.9
2022-11-17T03:20:23.222Z,20.9
2022-11-17T03:21:33.000Z,20.9
2022-11-17T03:22:43.000Z,20.9
2022-11-17T03:23:53.570Z,20.9
2022-11-17T03:25:03.683Z,20.9
2022-11-17T03:26:13.812Z,20.9
2022-11-17T03:27:23.000Z,20.9
2022-11-17T03:28:34.000Z,20.9
2022-11-17T03:29:44.151Z,20.9
2022-11-17T03:30:54.000Z,20.9
2022-11-17T03:32:03.416Z,20.9
2022-11-17T03:33:12.547Z,20.9
2022-11-17T03:34:22.666Z,20.9
2022-11-17T03:35:31.000Z,20.9
2022-11-17T03:36:41.922Z,20.9
2022-11-17T03:37:52.032Z,20.9
2022-11-17T03:39:02.000Z,20.9
2022-11-17T03:40:12.276Z,20.9
2022-11-17T03:41:22.000Z,20.9
2022-11-17T03:42:32.507Z,20.9
2022-11-17T03:43:42.000Z,20.9
2022-11-17T03:44:52.000Z,20.9
2022-11-17T03:46:02.863Z,20.9
2022-11-17T03:47:12.000Z,20.9
2022-11-17T03:48:23.088Z,20.9
2022-11-17T03:49:33.000Z,20.9
2022-11-17T03:50:42.000Z,20.9
2022-11-17T03:51:52.450Z,20.9
2022-11-17T03:53:02.567Z,20.9
2022-11-17T03:54:12.686Z,20.9
2022-11-17T03:55:22.000Z,20.9
2022-11-17T03:56:31.953Z,20.9
2022-11-17T03:57:41.084Z,20.9
2022-11-17T03:58:50.000Z,20.8
2022-11-17T04:00:00.000Z,20.8
2022-11-17T04:01:10.459Z,20.9
2022-11-17T04:02:19.587Z,20.8
2022-11-17T04:03:29.000Z,20.8
2022-11-17T04:04:39.000Z,20.9
2022-11-17T04:05:49.000Z,20.9
2022-11-17T04:07:00.058Z,20.9
2022-11-17T04:08:10.000Z,20.8
2022-11-17T04:09:20.300Z,20.8
2022-11-17T04:10:30.000Z,20.8
2022-11-17T04:11:40.000Z,20.9
2022-11-17T04:12:50.641Z,20.8
2022-11-17T04:14:00.000Z,20.8
2022-11-17T04:15:10.000Z,20.8
2022-11-17T04:16:20.000Z,20.8
2022-11-17T04:17:30.000Z,20.8
2022-11-17T04:18:40.000Z,20.8
2022-11-17T04:19:50.357Z,20.8
2022-11-17T04:21:00.000Z,20.8
2022-11-17T04:22:10.588Z,20.8
2022-11-17T04:23:19.735Z,20.8
2022-11-17T04:24:28.871Z,20.8
2022-11-17T04:25:38.000Z,20.8
2022-11-17T04:26:49.102Z,20.8
2022-11-17T04:27:59.222Z,20.8
2022-11-17T04:29:09.334Z,20.8
2022-11-17T04:30:19.465Z,20.8
2022-11-17T04:31:28.000Z,20.8
2022-11-17T04:32:37.000Z,20.8
2022-11-17T04:33:47.000Z,20.8
2022-11-17T04:34:57.963Z,20.8
2022-11-17T04:36:08.000Z,20.8
2022-11-17T04:37:18.000Z,20.8
2022-11-17T04:38:28.000Z,20.8
2022-11-17T04:39:38.000Z,20.8
2022-11-17T04:40:48.000Z,20.8
2022-11-17T04:41:58.660Z,20.8
2022-11-17T04:43:08.000Z,20.8
2022-11-17T04:44:18.000Z,20.8
2022-11-17T04:45:29.029Z,20.8
2022-11-17T04:46:39.000Z,20.8
2022-11-17T04:47:48.000Z,20.8
2022-11-17T04:48:58.000Z,20.8
2022-11-17T04:50:08.498Z,20.8
2022-11-17T04:51:18.628Z,20.8
2022-11-17T04:53:38.845Z,20.8
2022-11-17T04:54:48.000Z,20.8
2022-11-17T04:55:59.000Z,20.8
2022-11-17T04:57:09.198Z,20.8
2022-11-17T04:58:19.000Z,20.8
2022-11-17T04:59:29.000Z,20.8
2022-11-17T05:00:39.543Z,20.8
2022-11-17T05:01:49.000Z,20.8
2022-11-17T05:02:58.000Z,20.8
2022-11-17T05:04:08.000Z,20.8
2022-11-17T05:05:19.000Z,20.8
2022-11-17T05:06:29.000Z,20.8
2022-11-17T05:07:39.000Z,20.8
2022-11-17T05:08:49.000Z,20.8
2022-11-17T05:09:59.000Z,20.8
2022-11-17T05:11:09.000Z,20.8
2022-11-17T05:12:19.000Z,20.8
2022-11-17T05:13:29.000Z,20.8
2022-11-17T05:14:39.000Z,20.8
2022-11-17T05:15:50.000Z,20.7
2022-11-17T05:17:00.194Z,20.8
2022-11-17T05:18:10.315Z,20.8
2022-11-17T05:19:19.000Z,20.8
2022-11-17T05:20:29.567Z,20.7
2022-11-17T05:21:39.000Z,20.8
2022-11-17T05:22:49.809Z,20.8
2022-11-17T05:23:59.000Z,20.8
2022-11-17T05:25:10.041Z,20.8
2022-11-17T05:26:20.000Z,20.8
2022-11-17T05:27:30.000Z,20.7
2022-11-17T05:28:40.000Z,20.7
2022-11-17T05:29:50.000Z,20.7
2022-11-17T05:31:00.000Z,20.7
2022-11-17T05:32:10.000Z,20.8
2022-11-17T05:33:20.000Z,20.8
2022-11-17T05:34:29.000Z,20.7
2022-11-17T05:35:40.000Z,20.7
2022-11-17T05:36:50.000Z,20.7
2022-11-17T05:38:00.000Z,20.7
2022-11-17T05:39:10.000Z,20.7
2022-11-17T05:40:20.000Z,20.7
2022-11-17T05:41:30.000Z,20.7
2022-11-17T05:42:40.000Z,20.7
2022-11-17T05:43:50.000Z,20.7
2022-11-17T05:45:01.042Z,20.7
2022-11-17T05:46:11.154Z,20.7
2022-11-17T05:47:21.000Z,20.7
2022-11-17T05:48:31.000Z,20.7
2022-11-17T05:49:41.516Z,20.7
2022-11-17T05:50:51.000Z,20.7
2022-11-17T05:52:00.763Z,20.7
2022-11-17T05:53:10.000Z,20.7
2022-11-17T05:54:21.000Z,20.7
2022-11-17T05:55:31.000Z,20.7
2022-11-17T05:56:41.000Z,20.7
2022-11-17T05:57:51.000Z,20.7
2022-11-17T05:59:01.000Z,20.7
2022-11-17T06:00:11.000Z,20.7
2022-11-17T06:01:21.000Z,20.7
2022-11-17T06:02:31.000Z,20.7
2022-11-17T06:03:41.932Z,20.7
2022-11-17T06:04:52.000Z,20.7
2022-11-17T06:06:02.000Z,20.7
2022-11-17T06:07:11.000Z,20.7
2022-11-17T06:08:21.000Z,20.7
2022-11-17T06:09:31.000Z,20.7
2022-11-17T06:10:41.000Z,20.7
2022-11-17T06:11:51.771Z,20.7
2022-11-17T06:13:01.000Z,20.7
2022-11-17T06:14:12.007Z,20.7
2022-11-17T06:15:22.130Z,20.8
2022-11-17T06:16:32.000Z,20.7
2022-11-17T06:17:42.000Z,20.8
2022-11-17T06:18:52.000Z,20.8
2022-11-17T06:20:02.000Z,20.8
2022-11-17T06:21:12.000Z,20.8
2022-11-17T06:22:21.000Z,20.8
2022-11-17T06:23:31.000Z,20.8
2022-11-17T06:24:42.067Z,20.8
2022-11-17T06:25:52.000Z,20.8
2022-11-17T06:27:01.000Z,20.8
2022-11-17T06:28:11.000Z,20.8
2022-11-17T06:29:20.594Z,20.8
2022-11-17T06:30:29.724Z,20.8
2022-11-17T06:31:39.840Z,20.9
2022-11-17T06:32:49.000Z,20.9
2022-11-17T06:34:00.000Z,20.9
2022-11-17T06:35:10.200Z,20.9
2022-11-17T06:36:20.000Z,20.9
2022-11-17T06:37:30.000Z,20.9
2022-11-17T06:38:40.549Z,20.9
2022-11-17T06:39:50.000Z,20.9
2022-11-17T06:41:00.773Z,21
2022-11-17T06:42:10.903Z,21
2022-11-17T06:43:21.011Z,21
2022-11-17T06:44:31.000Z,21
2022-11-17T06:45:40.260Z,21
2022-11-17T06:46:50.000Z,21
2022-11-17T06:48:00.000Z,21
2022-11-17T06:49:10.615Z,21.1
2022-11-17T06:50:20.732Z,21.1
2022-11-17T06:51:30.000Z,21.1
2022-11-17T06:52:40.000Z,21.1
2022-11-17T06:53:51.000Z,21.1
2022-11-17T06:55:01.191Z,21.1
2022-11-17T06:56:11.000Z,21.1
2022-11-17T06:57:21.000Z,21.1
2022-11-17T06:58:31.000Z,21.2
2022-11-17T06:59:41.655Z,21.1
2022-11-17T07:00:51.777Z,21.2
2022-11-17T07:02:00.000Z,21.2
2022-11-17T07:03:11.000Z,21.2
2022-11-17T07:05:31.263Z,21.2
2022-11-17T07:06:41.000Z,21.2
2022-11-17T07:07:51.000Z,21.2
2022-11-17T07:10:11.734Z,21.3
2022-11-17T07:11:21.000Z,21.3
2022-11-17T07:12:31.000Z,21.3
2022-11-17T07:13:42.000Z,21.3
2022-11-17T07:14:52.000Z,21.3
2022-11-17T07:16:02.000Z,21.3
2022-11-17T07:18:22.545Z,21.3
2022-11-17T07:19:31.698Z,21.3
2022-11-17T07:21:50.936Z,21.4
2022-11-17T07:23:01.000Z,21.4
2022-11-17T07:24:11.000Z,21.4
2022-11-17T07:25:21.000Z,21.4
2022-11-17T07:26:31.000Z,21.4
2022-11-17T07:27:41.000Z,21.4
2022-11-17T07:28:51.647Z,21.4
2022-11-17T07:30:00.776Z,21.4
2022-11-17T07:31:10.000Z,21.4
2022-11-17T07:32:21.000Z,21.4
2022-11-17T07:33:30.000Z,21.4
2022-11-17T07:34:39.000Z,21.4
2022-11-17T07:35:49.000Z,21.5
2022-11-17T07:36:59.520Z,21.5
2022-11-17T07:38:09.000Z,21.5
2022-11-17T07:39:19.000Z,21.5
2022-11-17T07:40:29.000Z,21.5
2022-11-17T07:41:39.000Z,21.5
2022-11-17T07:42:50.105Z,21.5
2022-11-17T07:44:00.000Z,21.5
2022-11-17T07:45:10.000Z,21.5
2022-11-17T07:46:20.458Z,21.5
2022-11-17T07:47:30.000Z,21.5
2022-11-17T07:48:40.701Z,21.6
2022-11-17T07:49:49.000Z,21.6
2022-11-17T07:50:59.000Z,21.6
2022-11-17T07:52:10.000Z,21.6
2022-11-17T07:53:20.171Z,21.6
2022-11-17T07:54:30.000Z,21.6
2022-11-17T07:55:40.000Z,21.7
2022-11-17T07:56:50.523Z,21.7
2022-11-17T07:58:00.000Z,21.7
2022-11-17T07:59:10.000Z,21.7
2022-11-17T08:00:20.000Z,21.7
2022-11-17T08:01:30.992Z,21.7
2022-11-17T08:02:41.000Z,21.7
2022-11-17T08:03:51.225Z,21.7
2022-11-17T08:05:00.000Z,21.8
2022-11-17T08:06:10.000Z,21.8
2022-11-17T08:07:20.000Z,21.8
2022-11-17T08:08:30.709Z,21.8
2022-11-17T08:09:40.000Z,21.8
2022-11-17T08:10:50.000Z,21.8
2022-11-17T08:12:01.000Z,21.9
2022-11-17T08:13:11.000Z,21.9
2022-11-17T08:14:21.000Z,21.9
2022-11-17T08:15:31.403Z,21.9
2022-11-17T08:16:41.000Z,21.9
2022-11-17T08:17:51.641Z,21.9
2022-11-17T08:19:01.000Z,22
2022-11-17T08:20:10.891Z,22
2022-11-17T08:21:21.000Z,22
2022-11-17T08:22:31.000Z,22
2022-11-17T08:23:41.240Z,22
2022-11-17T08:26:01.000Z,22
2022-11-17T08:27:11.000Z,22
2022-11-17T08:28:21.706Z,22.1
2022-11-17T08:29:31.822Z,22.1
2022-11-17T08:30:41.000Z,22.1
2022-11-17T08:31:52.000Z,22.1
2022-11-17T08:33:02.000Z,22.1
2022-11-17T08:34:12.291Z,22.1
2022-11-17T08:35:21.427Z,22.1
2022-11-17T08:36:31.000Z,22.2
2022-11-17T08:37:41.654Z,22.2
2022-11-17T08:38:51.000Z,22.2
2022-11-17T08:40:01.000Z,22.2
2022-11-17T08:41:12.000Z,22.2
2022-11-17T08:42:22.000Z,22.2
2022-11-17T08:43:32.000Z,22.2
2022-11-17T08:44:42.000Z,22.3
2022-11-17T08:45:52.470Z,22.3
2022-11-17T08:47:02.000Z,22.3
2022-11-17T08:48:12.000Z,22.3
2022-11-17T08:49:21.847Z,22.3
2022-11-17T08:50:31.000Z,22.3
2022-11-17T08:51:41.000Z,22.3
2022-11-17T08:52:51.219Z,22.4
2022-11-17T08:54:01.000Z,22.4
2022-11-17T08:55:11.446Z,22.4
2022-11-17T08:56:20.000Z,22.4
2022-11-17T08:57:29.000Z,22.4
2022-11-17T08:58:39.000Z,22.4
2022-11-17T08:59:49.000Z,22.4
2022-11-17T09:01:00.075Z,22.4
2022-11-17T09:02:10.000Z,22.4
2022-11-17T09:03:20.306Z,22.5
2022-11-17T09:04:30.000Z,22.4
2022-11-17T09:05:40.000Z,22.5
2022-11-17T09:06:50.000Z,22.5
2022-11-17T09:08:00.000Z,22.5
2022-11-17T09:09:10.000Z,22.5
2022-11-17T09:10:21.000Z,22.5
2022-11-17T09:11:31.000Z,22.5
2022-11-17T09:12:40.000Z,22.5
2022-11-17T09:13:50.000Z,22.5
2022-11-17T09:15:00.000Z,22.5
2022-11-17T09:16:10.000Z,22.5
2022-11-17T09:17:20.000Z,22.5
2022-11-17T09:18:30.000Z,22.6
2022-11-17T09:19:40.000Z,22.6
2022-11-17T09:20:51.000Z,22.6
2022-11-17T09:22:01.000Z,22.6
2022-11-17T09:23:11.000Z,22.6
2022-11-17T09:24:21.433Z,22.6
2022-11-17T09:25:31.000Z,22.6
2022-11-17T09:26:41.661Z,22.6
2022-11-17T09:27:50.800Z,22.6
2022-11-17T09:30:11.023Z,22.6
2022-11-17T09:31:21.000Z,22.6
2022-11-17T09:32:31.000Z,22.6
2022-11-17T09:33:41.377Z,22.7
2022-11-17T09:34:51.493Z,22.7
2022-11-17T09:36:01.000Z,22.6
2022-11-17T09:37:11.723Z,22.7
2022-11-17T09:38:21.000Z,22.7
2022-11-17T09:39:31.000Z,22.7
2022-11-17T09:40:42.000Z,22.7
2022-11-17T09:41:52.000Z,22.7
2022-11-17T09:43:01.329Z,22.7
2022-11-17T09:44:11.000Z,22.7
2022-11-17T09:45:21.000Z,22.7
2022-11-17T09:46:31.673Z,22.7
2022-11-17T09:47:41.000Z,22.7
2022-11-17T09:48:51.000Z,22.7
2022-11-17T09:50:02.000Z,22.7
2022-11-17T09:51:12.000Z,22.7
2022-11-17T09:52:22.000Z,22.7
2022-11-17T09:53:32.373Z,22.7
2022-11-17T09:54:42.489Z,22.7
2022-11-17T09:55:52.608Z,22.7
2022-11-17T09:57:02.000Z,22.7
2022-11-17T09:59:22.000Z,22.7
2022-11-17T10:00:32.000Z,22.7
2022-11-17T10:01:42.000Z,22.7
2022-11-17T10:02:52.331Z,22.7
2022-11-17T10:04:02.000Z,22.7
2022-11-17T10:05:12.000Z,22.7
2022-11-17T10:06:22.679Z,22.7
2022-11-17T10:07:32.000Z,22.7
2022-11-17T10:08:42.000Z,22.7
2022-11-17T10:09:53.025Z,22.7
2022-11-17T10:11:03.000Z,22.7
2022-11-17T10:12:13.000Z,22.7
2022-11-17T10:13:23.000Z,22.7
2022-11-17T10:14:33.000Z,22.7
2022-11-17T10:15:42.000Z,22.7
2022-11-17T10:16:52.745Z,22.7
2022-11-17T10:18:02.000Z,22.7
2022-11-17T10:19:12.977Z,22.7
2022-11-17T10:20:23.000Z,22.7
2022-11-17T10:21:33.000Z,22.7
2022-11-17T10:22:43.325Z,22.7
2022-11-17T10:23:53.000Z,22.7
2022-11-17T10:25:03.000Z,22.7
2022-11-17T10:26:13.000Z,22.7
2022-11-17T10:27:23.000Z,22.7
2022-11-17T10:28:33.000Z,22.7
2022-11-17T10:29:44.000Z,22.7
2022-11-17T10:30:54.000Z,22.7
2022-11-17T10:32:03.000Z,22.7
2022-11-17T10:33:13.000Z,22.7
2022-11-17T10:34:23.000Z,22.7
2022-11-17T10:35:33.000Z,22.7
2022-11-17T10:36:43.000Z,22.8
2022-11-17T10:37:53.000Z,22.8
2022-11-17T10:39:03.000Z,22.8
2022-11-17T10:40:14.000Z,22.8
2022-11-17T10:41:24.208Z,22.8
2022-11-17T10:43:44.440Z,22.8
2022-11-17T10:44:54.000Z,22.8
2022-11-17T10:46:04.000Z,22.8
2022-11-17T10:47:13.000Z,22.8
2022-11-17T10:48:23.000Z,22.8
2022-11-17T10:49:34.000Z,22.8
2022-11-17T10:50:44.000Z,22.8
2022-11-17T10:51:54.279Z,22.8
2022-11-17T10:53:04.000Z,22.8
2022-11-17T10:54:14.507Z,22.8
2022-11-17T10:55:24.627Z,22.9
2022-11-17T10:56:34.000Z,22.9
2022-11-17T10:57:44.861Z,22.9
2022-11-17T10:58:54.974Z,22.9
2022-11-17T11:00:05.100Z,22.9
2022-11-17T11:01:15.000Z,22.9
2022-11-17T11:02:24.356Z,22.9
2022-11-17T11:03:34.464Z,22.9
2022-11-17T11:04:44.000Z,22.9
2022-11-17T11:05:54.694Z,22.9
2022-11-17T11:07:04.812Z,22.9
2022-11-17T11:08:14.000Z,22.9
2022-11-17T11:09:25.046Z,22.9
2022-11-17T11:10:35.000Z,22.9
2022-11-17T11:11:45.000Z,22.9
2022-11-17T11:12:55.410Z,22.9
2022-11-17T11:14:05.000Z,22.9
2022-11-17T11:15:15.000Z,22.9
2022-11-17T11:16:25.000Z,22.9
2022-11-17T11:17:34.000Z,22.9
2022-11-17T11:18:44.000Z,22.9
2022-11-17T11:19:55.000Z,23
2022-11-17T11:21:05.000Z,23
2022-11-17T11:22:15.343Z,23
2022-11-17T11:23:25.000Z,23
2022-11-17T11:25:44.000Z,23
2022-11-17T11:26:53.000Z,23
2022-11-17T11:28:03.980Z,23
2022-11-17T11:29:14.000Z,23
2022-11-17T11:30:24.000Z,23
2022-11-17T11:31:34.326Z,23
2022-11-17T11:32:44.000Z,23
2022-11-17T11:33:54.000Z,23
2022-11-17T11:35:04.000Z,23
2022-11-17T11:36:14.000Z,23
2022-11-17T11:37:24.905Z,23
2022-11-17T11:39:45.000Z,23
2022-11-17T11:40:55.263Z,23
2022-11-17T11:42:04.000Z,23
2022-11-17T11:44:24.626Z,23
2022-11-17T11:46:43.893Z,23
2022-11-17T11:49:03.146Z,23.1
2022-11-17T11:50:12.000Z,23.1
2022-11-17T11:51:21.000Z,23.1
2022-11-17T11:52:31.554Z,23.1
2022-11-17T11:53:41.662Z,23.1
2022-11-17T11:54:51.000Z,23.1
2022-11-17T11:56:01.000Z,23.1
2022-11-17T11:57:12.014Z,23.1
2022-11-17T11:58:22.000Z,23.1
2022-11-17T11:59:32.000Z,23.1
2022-11-17T12:00:42.000Z,23.1
2022-11-17T12:01:52.000Z,23.1
2022-11-17T12:03:01.625Z,23.1
2022-11-17T12:04:11.732Z,23.1
2022-11-17T12:05:21.000Z,23.1
2022-11-17T12:06:31.000Z,23.1
2022-11-17T12:07:41.000Z,23.1
2022-11-17T12:08:51.214Z,23.1
2022-11-17T12:10:01.000Z,23.1
2022-11-17T12:11:11.458Z,23.1
2022-11-17T12:12:21.000Z,23.1
2022-11-17T12:13:31.000Z,23.1
2022-11-17T12:14:41.000Z,23.1
2022-11-17T12:15:51.000Z,23.1
2022-11-17T12:17:02.000Z,23.1
2022-11-17T12:18:12.000Z,23.1
2022-11-17T12:19:22.268Z,23.2
2022-11-17T12:20:32.000Z,23.1
2022-11-17T12:21:42.000Z,23.2
2022-11-17T12:22:51.000Z,23.2
2022-11-17T12:24:01.000Z,23.2
2022-11-17T12:25:11.865Z,23.2
2022-11-17T12:26:21.000Z,23.2
2022-11-17T12:27:32.000Z,23.2
2022-11-17T12:28:42.000Z,23.2
2022-11-17T12:29:52.000Z,23.2
2022-11-17T12:31:02.000Z,23.2
2022-11-17T12:32:12.000Z,23.2
2022-11-17T12:33:22.000Z,23.2
2022-11-17T12:34:32.000Z,23.2
2022-11-17T12:35:42.000Z,23.2
2022-11-17T12:36:53.039Z,23.2
2022-11-17T12:38:02.000Z,23.2
2022-11-17T12:39:12.000Z,23.2
2022-11-17T12:40:22.000Z,23.2
2022-11-17T12:41:32.516Z,23.2
2022-11-17T12:42:42.000Z,23.2
2022-11-17T12:43:52.000Z,23.2
2022-11-17T12:45:02.868Z,23.2
2022-11-17T12:46:12.000Z,23.2
2022-11-17T12:47:23.000Z,23.2
2022-11-17T12:48:33.214Z,23.2
2022-11-17T12:49:43.000Z,23.2
2022-11-17T12:50:53.000Z,23.2
2022-11-17T12:52:03.566Z,23.2
2022-11-17T12:53:13.000Z,23.2
2022-11-17T12:54:22.000Z,23.2
2022-11-17T12:55:32.934Z,23.2
2022-11-17T12:56:43.000Z,23.2
2022-11-17T12:57:53.163Z,23.2
2022-11-17T13:00:13.000Z,23.2
2022-11-17T13:01:23.520Z,23.2
2022-11-17T13:02:33.000Z,23.2
2022-11-17T13:03:43.000Z,23.2
2022-11-17T13:04:53.000Z,23.2
2022-11-17T13:06:03.979Z,23.2
2022-11-17T13:07:14.094Z,23.2
2022-11-17T13:08:24.000Z,23.2
2022-11-17T13:09:33.351Z,23.2
2022-11-17T13:10:43.000Z,23.2
2022-11-17T13:11:53.581Z,23.2
2022-11-17T13:13:03.000Z,23.3
2022-11-17T13:14:13.000Z,23.2
2022-11-17T13:15:23.000Z,23.3
2022-11-17T13:16:34.043Z,23.3
2022-11-17T13:17:44.000Z,23.3
2022-11-17T13:18:54.000Z,23.3
2022-11-17T13:20:04.000Z,23.3
2022-11-17T13:21:14.522Z,23.3
2022-11-17T13:22:24.000Z,23.3
2022-11-17T13:23:34.000Z,23.3
2022-11-17T13:24:43.000Z,23.3
2022-11-17T13:25:53.997Z,23.3
2022-11-17T13:27:04.000Z,23.3
2022-11-17T13:28:14.000Z,23.3
2022-11-17T13:29:24.341Z,23.3
2022-11-17T13:30:34.468Z,23.3
2022-11-17T13:31:44.000Z,23.3
2022-11-17T13:32:54.000Z,23.3
2022-11-17T13:34:04.000Z,23.3
2022-11-17T13:35:14.931Z,23.3
2022-11-17T13:36:25.000Z,23.3
2022-11-17T13:37:34.000Z,23.3
2022-11-17T13:38:43.000Z,23.3
2022-11-17T13:39:52.000Z,23.4
2022-11-17T13:41:01.000Z,23.4
2022-11-17T13:42:11.000Z,23.4
2022-11-17T13:43:21.000Z,23.4
2022-11-17T13:44:31.000Z,23.4
2022-11-17T13:45:42.000Z,23.4
2022-11-17T13:46:52.180Z,23.4
2022-11-17T13:48:02.000Z,23.4
2022-11-17T13:49:12.413Z,23.4
2022-11-17T13:50:22.529Z,23.4
2022-11-17T13:51:32.645Z,23.4
2022-11-17T13:52:42.000Z,23.4
2022-11-17T13:53:52.000Z,23.4
2022-11-17T13:55:03.000Z,23.4
2022-11-17T13:56:12.000Z,23.4
2022-11-17T13:57:22.000Z,23.4
2022-11-17T13:58:32.000Z,23.4
2022-11-17T13:59:42.484Z,23.4
2022-11-17T14:00:52.601Z,23.4
2022-11-17T14:02:02.000Z,23.4
2022-11-17T14:03:12.000Z,23.4
2022-11-17T14:04:22.000Z,23.4
2022-11-17T14:05:33.000Z,23.4
2022-11-17T14:06:43.000Z,23.4
2022-11-17T14:09:03.000Z,23.4
2022-11-17T14:10:13.536Z,23.4
2022-11-17T14:11:23.655Z,23.4
2022-11-17T14:12:33.000Z,23.4
2022-11-17T14:13:42.000Z,23.4
2022-11-17T14:14:53.000Z,23.4
2022-11-17T14:16:03.140Z,23.4
2022-11-17T14:17:13.000Z,23.4
2022-11-17T14:18:23.371Z,23.4
2022-11-17T14:19:33.000Z,23.4
2022-11-17T14:20:43.000Z,23.4
2022-11-17T14:21:53.718Z,23.4
2022-11-17T14:23:03.000Z,23.4
2022-11-17T14:24:13.000Z,23.4
2022-11-17T14:25:24.000Z,23.4
2022-11-17T14:26:34.000Z,23.4
2022-11-17T14:27:44.000Z,23.4
2022-11-17T14:28:53.000Z,23.4
2022-11-17T14:30:03.560Z,23.4
2022-11-17T14:31:13.000Z,23.4
2022-11-17T14:32:23.000Z,23.4
2022-11-17T14:33:33.000Z,23.4
2022-11-17T14:34:44.000Z,23.4
2022-11-17T14:35:54.141Z,23.4
2022-11-17T14:37:04.252Z,23.4
2022-11-17T14:38:14.373Z,23.4
2022-11-17T14:39:24.000Z,23.4
2022-11-17T14:41:43.000Z,23.4
2022-11-17T14:42:52.894Z,23.4
2022-11-17T14:44:02.000Z,23.4
2022-11-17T14:45:12.000Z,23.4
2022-11-17T14:46:22.000Z,23.4
2022-11-17T14:47:31.403Z,23.4
2022-11-17T14:48:40.535Z,23.4
2022-11-17T14:49:50.658Z,23.4
2022-11-17T14:51:00.000Z,23.4
2022-11-17T14:52:10.000Z,23.4
2022-11-17T14:53:21.000Z,23.4
2022-11-17T14:54:31.000Z,23.4
2022-11-17T14:55:41.000Z,23.4
2022-11-17T14:56:51.000Z,23.4
2022-11-17T14:58:01.471Z,23.4
2022-11-17T14:59:11.581Z,23.4
2022-11-17T15:00:21.709Z,23.4
2022-11-17T15:01:31.000Z,23.5
2022-11-17T15:02:41.000Z,23.5
2022-11-17T15:03:52.047Z,23.5
2022-11-17T15:05:02.000Z,23.4
2022-11-17T15:06:12.283Z,23.5
2022-11-17T15:07:21.000Z,23.5
2022-11-17T15:08:31.000Z,23.4
2022-11-17T15:09:41.000Z,23.5
2022-11-17T15:10:51.774Z,23.5
2022-11-17T15:12:01.000Z,23.5
2022-11-17T15:14:22.000Z,23.5
2022-11-17T15:15:32.000Z,23.5
2022-11-17T15:16:42.000Z,23.5
2022-11-17T15:17:52.000Z,23.5
2022-11-17T15:19:02.000Z,23.5
2022-11-17T15:20:12.698Z,23.5
2022-11-17T15:21:21.000Z,23.5
2022-11-17T15:22:31.953Z,23.5
2022-11-17T15:23:42.000Z,23.5
2022-11-17T15:24:51.213Z,23.5
2022-11-17T15:26:00.351Z,23.5
2022-11-17T15:27:10.000Z,23.5
2022-11-17T15:28:20.000Z,23.5
2022-11-17T15:29:29.000Z,23.5
2022-11-17T15:30:38.000Z,23.5
2022-11-17T15:31:48.980Z,23.5
2022-11-17T15:32:59.101Z,23.5
2022-11-17T15:34:09.206Z,23.5
2022-11-17T15:35:19.324Z,23.5
2022-11-17T15:36:29.000Z,23.5
2022-11-17T15:37:39.557Z,23.5
2022-11-17T15:38:49.000Z,23.5
2022-11-17T15:39:59.000Z,23.5
2022-11-17T15:41:09.000Z,23.5
2022-11-17T15:42:20.000Z,23.5
2022-11-17T15:43:30.000Z,23.5
2022-11-17T15:44:40.000Z,23.5
2022-11-17T15:45:50.000Z,23.5
2022-11-17T15:46:59.000Z,23.5
2022-11-17T15:48:09.000Z,23.5
2022-11-17T15:49:19.742Z,23.5
2022-11-17T15:50:29.000Z,23.5
2022-11-17T15:51:39.000Z,23.5
2022-11-17T15:52:50.000Z,23.6
2022-11-17T15:55:10.000Z,23.5
2022-11-17T15:56:20.449Z,23.6
2022-11-17T15:57:30.567Z,23.6
2022-11-17T15:58:40.000Z,23.5
2022-11-17T15:59:50.000Z,23.5
2022-11-17T16:01:00.919Z,23.5
2022-11-17T16:02:10.000Z,23.6
2022-11-17T16:03:20.160Z,23.6
2022-11-17T16:04:30.000Z,23.5
2022-11-17T16:05:40.398Z,23.6